Time;durP1;ratioP1;P1;durP2;ratioP2;P2;SDS_P1;SDS_P2;PMS_P1;PMS_P2;Temp;Humidity;BMP_temperature;BMP_pressure;BME280_temperature;BME280_humidity;BME280_pressure;Samples;Min_cycle;Max_cycle;Signal;HPM_P1;HPM_P2
2023/04/09 00:01:06;;;;;;;;;;;;;;;10.13;79.36;102535.22;5023481;28;19925;-64
2023/04/09 00:03:32;;;;;;;;;;;;;;;10.13;79.74;102534.38;5021027;28;20338;-64
2023/04/09 00:05:57;;;;;;;;;;;;;;;10.12;79.72;102530.03;5020762;28;20516;-64
2023/04/09 00:08:22;;;;;;;;;;;;;;;10.10;79.46;102527.50;5021000;28;19917;-64
2023/04/09 00:10:48;;;;;;;;;;;;;;;10.11;79.40;102533.66;5022010;28;19924;-64
2023/04/09 00:13:13;;;;;;;;;;;;;;;10.11;79.42;102536.31;5029712;28;19913;-64
2023/04/09 00:15:38;;;;;;;;;;;;;;;10.12;79.74;102530.03;5025615;28;20032;-64
2023/04/09 00:18:03;;;;;;;;;;;;;;;10.13;79.64;102529.91;5028481;28;19924;-64
2023/04/09 00:20:28;;;;;;;;;;;;;;;10.14;79.82;102526.28;5027937;28;19955;-64
2023/04/09 00:22:55;;;;;;;;;;;;;;;10.16;80.30;102524.34;5030794;28;20370;-64
2023/04/09 00:25:20;;;;;;;;;;;;;;;10.18;80.06;102526.88;5028872;28;20087;-64
2023/04/09 00:27:45;;;;;;;;;;;;;;;10.19;80.21;102523.25;5021681;28;20438;-64
2023/04/09 00:30:11;;;;;;;;;;;;;;;10.20;79.90;102519.63;5029383;28;19923;-64
2023/04/09 00:32:36;;;;;;;;;;;;;;;10.22;80.18;102515.06;5025940;28;19921;-64
2023/04/09 00:35:01;;;;;;;;;;;;;;;10.23;80.40;102511.44;5029334;28;19947;-64
2023/04/09 00:37:26;;;;;;;;;;;;;;;10.24;79.99;102513.97;5027902;28;19917;-64
2023/04/09 00:39:51;;;;;;;;;;;;;;;10.25;80.20;102512.16;5027045;28;20032;-64
2023/04/09 00:42:16;;;;;;;;;;;;;;;10.25;80.04;102512.16;5014416;28;19920;-64
2023/04/09 00:44:42;;;;;;;;;;;;;;;10.24;80.25;102513.97;5025777;28;19925;-64
2023/04/09 00:47:07;;;;;;;;;;;;;;;10.24;80.56;102506.00;5022916;28;19921;-64
2023/04/09 00:49:32;;;;;;;;;;;;;;;10.23;80.70;102506.13;5031124;28;19917;-64
2023/04/09 00:51:57;;;;;;;;;;;;;;;10.22;80.70;102505.28;5020083;28;19940;-64
2023/04/09 00:54:23;;;;;;;;;;;;;;;10.22;80.41;102504.44;5021361;28;19913;-64
2023/04/09 00:56:48;;;;;;;;;;;;;;;10.22;80.78;102505.28;5024277;28;19961;-64
2023/04/09 00:59:13;;;;;;;;;;;;;;;10.22;80.87;102501.78;5024794;28;20378;-63
2023/04/09 01:01:38;;;;;;;;;;;;;;;10.20;80.77;102504.59;5025372;28;20016;-64
2023/04/09 01:04:04;;;;;;;;;;;;;;;10.19;80.93;102510.81;5023766;28;20441;-64
2023/04/09 01:06:35;;;;;;;;;;;;;;;10.17;80.95;102504.81;5013678;28;19917;-64
2023/04/09 01:09:04;;;;;;;;;;;;;;;10.17;81.00;102502.16;5021533;28;20411;-63
2023/04/09 01:11:49;;;;;;;;;;;;;;;10.17;81.44;102498.66;5029998;28;20047;-64
2023/04/09 01:14:23;;;;;;;;;;;;;;;10.16;81.20;102496.97;5027480;28;19921;-64
2023/04/09 01:16:51;;;;;;;;;;;;;;;10.15;81.32;102493.47;5030833;28;19924;-64
2023/04/09 01:19:35;;;;;;;;;;;;;;;10.15;81.24;102488.16;5025584;28;20359;-64
2023/04/09 01:22:03;;;;;;;;;;;;;;;10.14;81.12;102483.81;5027372;28;19929;-64
2023/04/09 01:24:28;;;;;;;;;;;;;;;10.14;81.35;102489.13;5019055;28;19917;-64
2023/04/09 01:27:01;;;;;;;;;;;;;;;10.14;81.65;102488.28;5025255;28;20517;-64
2023/04/09 01:29:29;;;;;;;;;;;;;;;10.13;81.51;102483.94;5023631;28;19921;-64
2023/04/09 01:31:54;;;;;;;;;;;;;;;10.13;81.25;102484.78;5026405;28;19925;-64
2023/04/09 01:34:20;;;;;;;;;;;;;;;10.15;81.04;102479.34;5029088;28;19925;-64
2023/04/09 01:36:50;;;;;;;;;;;;;;;10.14;81.56;102488.28;5019705;28;20045;-64
2023/04/09 01:39:16;;;;;;;;;;;;;;;10.11;81.25;102485.88;5029738;28;19949;-64
2023/04/09 01:41:41;;;;;;;;;;;;;;;10.10;81.21;102485.03;5015623;28;20423;-63
2023/04/09 01:44:09;;;;;;;;;;;;;;;10.09;81.56;102485.16;5016046;28;19921;-64
2023/04/09 01:46:36;;;;;;;;;;;;;;;10.09;81.28;102485.16;5029031;28;19920;-64
2023/04/09 01:49:01;;;;;;;;;;;;;;;10.08;81.42;102488.78;5023714;28;19921;-64
2023/04/09 01:51:27;;;;;;;;;;;;;;;10.07;81.57;102487.94;5031499;28;19913;-64
2023/04/09 01:53:52;;;;;;;;;;;;;;;10.05;81.45;102479.25;5019454;28;19956;-64
2023/04/09 01:56:17;;;;;;;;;;;;;;;10.04;81.63;102482.88;5026726;28;19917;-64
2023/04/09 01:58:42;;;;;;;;;;;;;;;10.04;81.45;102476.72;5015587;28;19921;-64
2023/04/09 02:01:31;;;;;;;;;;;;;;;10.04;81.71;102488.19;5020502;28;20379;-64
2023/04/09 02:03:59;;;;;;;;;;;;;;;10.04;81.83;102479.38;5020617;28;19917;-64
2023/04/09 02:06:33;;;;;;;;;;;;;;;10.03;81.91;102480.34;5023858;28;20386;-64
2023/04/09 02:08:59;;;;;;;;;;;;;;;10.03;81.99;102480.34;5027027;28;20456;-63
2023/04/09 02:11:26;;;;;;;;;;;;;;;10.03;82.08;102483.00;5022494;28;20405;-64
2023/04/09 02:13:53;;;;;;;;;;;;;;;10.01;82.25;102475.19;5022589;28;19921;-64
2023/04/09 02:16:19;;;;;;;;;;;;;;;10.00;82.28;102472.66;5020217;28;20367;-64
2023/04/09 02:18:45;;;;;;;;;;;;;;;9.99;82.16;102474.47;5018718;28;19917;-64
2023/04/09 02:21:12;;;;;;;;;;;;;;;9.98;82.31;102472.78;5024829;28;19928;-64
2023/04/09 02:23:37;;;;;;;;;;;;;;;9.97;82.50;102467.59;5024718;28;20006;-64
2023/04/09 02:26:02;;;;;;;;;;;;;;;9.96;82.33;102469.41;5021981;28;20329;-64
2023/04/09 02:28:27;;;;;;;;;;;;;;;9.97;82.69;102464.94;5022337;28;19924;-64
2023/04/09 02:30:53;;;;;;;;;;;;;;;9.97;82.33;102467.59;5019081;28;19917;-64
2023/04/09 02:33:18;;;;;;;;;;;;;;;9.95;82.72;102467.72;5022381;28;20332;-64
2023/04/09 02:35:43;;;;;;;;;;;;;;;9.92;82.39;102465.31;5027318;28;19917;-64
2023/04/09 02:38:12;;;;;;;;;;;;;;;9.89;82.64;102463.78;5023734;28;20004;-64
2023/04/09 02:40:38;;;;;;;;;;;;;;;9.88;82.37;102461.25;5017620;28;20042;-64
2023/04/09 02:43:03;;;;;;;;;;;;;;;9.84;82.62;102462.47;5019638;28;19996;-64
2023/04/09 02:45:28;;;;;;;;;;;;;;;9.82;82.38;102459.91;5022441;28;19917;-63
2023/04/09 02:47:53;;;;;;;;;;;;;;;9.79;82.52;102461.97;5024646;28;19926;-64
2023/04/09 02:50:19;;;;;;;;;;;;;;;9.76;82.34;102454.28;5026685;28;19913;-63
2023/04/09 02:52:45;;;;;;;;;;;;;;;9.73;82.58;102452.72;5022039;28;20019;-64
2023/04/09 02:55:10;;;;;;;;;;;;;;;9.72;82.31;102447.53;5023934;28;19921;-64
2023/04/09 02:57:36;;;;;;;;;;;;;;;9.71;82.74;102457.31;5020663;28;20425;-64
2023/04/09 03:00:01;;;;;;;;;;;;;;;9.73;82.95;102458.03;5027057;28;19921;-63
2023/04/09 03:02:26;;;;;;;;;;;;;;;9.73;82.70;102457.19;5025801;28;19940;-64
2023/04/09 03:04:51;;;;;;;;;;;;;;;9.74;83.15;102451.75;5025143;28;19917;-63
2023/04/09 03:07:17;;;;;;;;;;;;;;;9.74;82.85;102454.41;5026087;28;20016;-64
2023/04/09 03:09:42;;;;;;;;;;;;;;;9.72;83.24;102450.19;5021536;28;20329;-64
2023/04/09 03:12:07;;;;;;;;;;;;;;;9.69;83.32;102443.34;5023674;28;19917;-64
2023/04/09 03:14:32;;;;;;;;;;;;;;;9.69;83.21;102447.78;5017388;28;19948;-64
2023/04/09 03:16:57;;;;;;;;;;;;;;;9.68;83.37;102449.59;5024225;28;19920;-64
2023/04/09 03:19:23;;;;;;;;;;;;;;;9.64;83.60;102450.81;5027482;28;20390;-64
2023/04/09 03:21:49;;;;;;;;;;;;;;;9.61;83.52;102438.66;5021341;28;19924;-63
2023/04/09 03:24:14;;;;;;;;;;;;;;;9.60;83.74;102444.94;5023639;28;19913;-64
2023/04/09 03:26:40;;;;;;;;;;;;;;;9.58;83.71;102441.56;5026333;28;19967;-64
2023/04/09 03:29:05;;;;;;;;;;;;;;;9.59;83.75;102437.94;5021388;28;19971;-64
2023/04/09 03:31:31;;;;;;;;;;;;;;;9.58;83.01;102443.38;5021702;28;20008;-64
2023/04/09 03:33:56;;;;;;;;;;;;;;;9.57;82.83;102441.69;5018467;28;20305;-63
2023/04/09 03:36:21;;;;;;;;;;;;;;;9.54;82.81;102437.47;5023034;28;19921;-64
2023/04/09 03:38:47;;;;;;;;;;;;;;;9.54;83.22;102433.94;5021080;28;19922;-64
2023/04/09 03:41:12;;;;;;;;;;;;;;;9.53;83.44;102437.56;5018285;28;20345;-63
2023/04/09 03:43:37;;;;;;;;;;;;;;;9.51;83.20;102434.22;5025128;28;20381;-64
2023/04/09 03:46:10;;;;;;;;;;;;;;;9.50;83.30;102432.53;5018130;28;19913;-64
2023/04/09 03:48:35;;;;;;;;;;;;;;;9.49;83.76;102428.19;5026050;28;19960;-63
2023/04/09 03:51:00;;;;;;;;;;;;;;;9.48;83.77;102431.81;5032945;28;19995;-63
2023/04/09 03:53:25;;;;;;;;;;;;;;;9.47;83.13;102424.81;5025508;28;20398;-64
2023/04/09 03:55:50;;;;;;;;;;;;;;;9.45;83.31;102424.94;5026634;28;19963;-64
2023/04/09 03:58:16;;;;;;;;;;;;;;;9.43;83.61;102418.94;5024601;28;20588;-64
2023/04/09 04:00:42;;;;;;;;;;;;;;;9.40;84.04;102424.47;5031191;28;19917;-64
2023/04/09 04:03:07;;;;;;;;;;;;;;;9.40;83.94;102413.88;5029106;28;19928;-64
2023/04/09 04:05:32;;;;;;;;;;;;;;;9.37;84.00;102418.59;5023226;28;19917;-64
2023/04/09 04:07:57;;;;;;;;;;;;;;;9.33;83.92;102418.00;5027409;28;19992;-64
2023/04/09 04:10:22;;;;;;;;;;;;;;;9.30;83.33;102424.38;5024825;28;19924;-64
2023/04/09 04:12:48;;;;;;;;;;;;;;;9.27;83.47;102422.00;5031079;28;19987;-64
2023/04/09 04:15:13;;;;;;;;;;;;;;;9.25;83.25;102423.91;5020022;28;20326;-64
2023/04/09 04:17:38;;;;;;;;;;;;;;;9.27;83.13;102423.78;5026702;28;19924;-64
2023/04/09 04:20:03;;;;;;;;;;;;;;;9.26;82.82;102428.25;5021618;28;19918;-64
2023/04/09 04:22:29;;;;;;;;;;;;;;;9.17;82.98;102422.81;5026003;28;19921;-63
2023/04/09 04:24:54;;;;;;;;;;;;;;;9.20;82.69;102426.06;5029232;28;19940;-64
2023/04/09 04:27:19;;;;;;;;;;;;;;;9.15;82.83;102424.75;5020934;28;19924;-64
2023/04/09 04:29:44;;;;;;;;;;;;;;;9.15;83.06;102425.59;5022403;28;19924;-64
2023/04/09 04:32:09;;;;;;;;;;;;;;;9.16;82.34;102421.97;5025327;28;19949;-64
2023/04/09 04:34:35;;;;;;;;;;;;;;;9.14;82.21;102423.91;5030259;28;19920;-64
2023/04/09 04:37:00;;;;;;;;;;;;;;;9.11;82.80;102429.47;5022772;28;19921;-64
2023/04/09 04:39:25;;;;;;;;;;;;;;;9.08;83.19;102426.22;5028929;28;20397;-64
2023/04/09 04:41:50;;;;;;;;;;;;;;;9.06;83.05;102422.84;5026484;28;19925;-64
2023/04/09 04:44:15;;;;;;;;;;;;;;;9.07;82.37;102422.72;5029247;28;20441;-64
2023/04/09 04:46:40;;;;;;;;;;;;;;;9.02;82.64;102424.91;5028074;28;19925;-64
2023/04/09 04:49:06;;;;;;;;;;;;;;;9.02;82.45;102429.38;5025021;28;19960;-64
2023/04/09 04:51:31;;;;;;;;;;;;;;;9.00;82.38;102424.19;5032559;28;20678;-63
2023/04/09 04:53:56;;;;;;;;;;;;;;;9.00;83.00;102424.19;5028762;28;19928;-64
2023/04/09 04:56:21;;;;;;;;;;;;;;;8.95;83.42;102416.56;5024963;28;19967;-64
2023/04/09 04:58:46;;;;;;;;;;;;;;;8.90;82.99;102429.34;5026408;28;19913;-64
2023/04/09 05:01:11;;;;;;;;;;;;;;;8.89;82.87;102425.00;5020790;28;19925;-64
2023/04/09 05:03:37;;;;;;;;;;;;;;;8.82;82.94;102412.38;5022410;28;19917;-64
2023/04/09 05:06:02;;;;;;;;;;;;;;;8.84;82.81;102416.59;5023688;28;19921;-63
2023/04/09 05:08:27;;;;;;;;;;;;;;;8.82;83.12;102429.13;5026474;28;20448;-64
2023/04/09 05:10:54;;;;;;;;;;;;;;;8.78;83.16;102421.53;5019703;28;19932;-63
2023/04/09 05:13:20;;;;;;;;;;;;;;;8.73;82.94;102418.41;5024675;28;19925;-64
2023/04/09 05:15:45;;;;;;;;;;;;;;;8.71;82.56;102420.34;5019733;28;19917;-64
2023/04/09 05:18:10;;;;;;;;;;;;;;;8.60;82.29;102421.16;5020706;28;19921;-64
2023/04/09 05:20:35;;;;;;;;;;;;;;;8.54;82.09;102424.28;5020389;28;20817;-64
2023/04/09 05:23:00;;;;;;;;;;;;;;;8.48;81.67;102424.75;5015552;28;19979;-64
2023/04/09 05:25:25;;;;;;;;;;;;;;;8.45;81.66;102422.34;5011076;28;19914;-64
2023/04/09 05:27:51;;;;;;;;;;;;;;;8.30;82.20;102430.44;5024078;28;20018;-64
2023/04/09 05:30:16;;;;;;;;;;;;;;;8.23;82.02;102436.34;5023350;28;19925;-64
2023/04/09 05:32:41;;;;;;;;;;;;;;;8.17;82.44;102434.16;5011936;28;19913;-63
2023/04/09 05:35:06;;;;;;;;;;;;;;;8.10;82.49;102425.84;5013152;28;19925;-64
2023/04/09 05:37:32;;;;;;;;;;;;;;;8.08;82.82;102433.88;5021541;28;19917;-64
2023/04/09 05:39:57;;;;;;;;;;;;;;;8.06;83.01;102432.31;5017554;28;19918;-63
2023/04/09 05:42:22;;;;;;;;;;;;;;;8.05;82.67;102431.47;5025012;28;19924;-63
2023/04/09 05:44:47;;;;;;;;;;;;;;;8.02;83.15;102434.34;5027004;28;20294;-63
2023/04/09 05:47:12;;;;;;;;;;;;;;;8.00;83.27;102430.13;5021209;28;19971;-64
2023/04/09 05:49:37;;;;;;;;;;;;;;;8.01;83.24;102431.81;5027226;28;19920;-63
2023/04/09 05:52:03;;;;;;;;;;;;;;;7.99;83.46;102431.06;5023684;28;19917;-63
2023/04/09 05:54:28;;;;;;;;;;;;;;;7.98;83.26;102446.09;5023530;28;19920;-64
2023/04/09 05:56:53;;;;;;;;;;;;;;;8.00;83.41;102438.06;5020742;28;19917;-63
2023/04/09 05:59:18;;;;;;;;;;;;;;;8.00;83.42;102436.25;5018644;28;19922;-63
2023/04/09 06:01:43;;;;;;;;;;;;;;;8.02;83.17;102438.78;5018267;28;20386;-63
2023/04/09 06:04:08;;;;;;;;;;;;;;;8.06;83.02;102445.53;5021155;28;20024;-63
2023/04/09 06:06:36;;;;;;;;;;;;;;;8.06;83.61;102445.53;5020509;28;20376;-64
2023/04/09 06:09:01;;;;;;;;;;;;;;;8.11;83.48;102447.84;5021978;28;19929;-63
2023/04/09 06:11:26;;;;;;;;;;;;;;;8.15;84.14;102444.84;5025022;28;19924;-64
2023/04/09 06:13:52;;;;;;;;;;;;;;;8.20;84.19;102448.00;5021642;28;19917;-63
2023/04/09 06:16:17;;;;;;;;;;;;;;;8.24;83.44;102449.44;5018579;28;19924;-64
2023/04/09 06:18:42;;;;;;;;;;;;;;;8.27;84.24;102440.44;5021090;28;19921;-64
2023/04/09 06:21:07;;;;;;;;;;;;;;;8.34;84.63;102450.47;5023043;28;19932;-64
2023/04/09 06:23:33;;;;;;;;;;;;;;;8.42;84.25;102443.75;5022492;28;20386;-63
2023/04/09 06:25:59;;;;;;;;;;;;;;;8.48;84.36;102448.59;5019917;28;20280;-64
2023/04/09 06:28:24;;;;;;;;;;;;;;;8.57;84.54;102451.34;5026883;28;20514;-63
2023/04/09 06:30:49;;;;;;;;;;;;;;;8.63;84.31;102448.22;5021493;28;19917;-64
2023/04/09 06:33:15;;;;;;;;;;;;;;;8.65;83.97;102445.47;5022999;28;19917;-64
2023/04/09 06:35:40;;;;;;;;;;;;;;;8.67;84.00;102457.66;5025374;28;19928;-64
2023/04/09 06:38:05;;;;;;;;;;;;;;;8.73;83.72;102458.13;5023086;28;20290;-64
2023/04/09 06:40:31;;;;;;;;;;;;;;;8.74;83.38;102455.38;5023594;28;19928;-64
2023/04/09 06:42:56;;;;;;;;;;;;;;;8.76;82.93;102456.09;5024388;28;19924;-64
2023/04/09 06:45:21;;;;;;;;;;;;;;;8.74;82.99;102463.31;5022761;28;20004;-63
2023/04/09 06:47:47;;;;;;;;;;;;;;;8.75;83.11;102462.34;5028417;28;20287;-64
2023/04/09 06:50:12;;;;;;;;;;;;;;;8.83;83.37;102464.41;5021968;28;19924;-63
2023/04/09 06:52:37;;;;;;;;;;;;;;;8.93;83.50;102457.41;5026121;28;19923;-63
2023/04/09 06:55:02;;;;;;;;;;;;;;;8.98;83.51;102458.75;5023087;28;19921;-63
2023/04/09 06:57:28;;;;;;;;;;;;;;;9.03;83.28;102454.91;5024525;28;19944;-63
2023/04/09 06:59:53;;;;;;;;;;;;;;;9.06;83.35;102459.94;5024436;28;19914;-63
2023/04/09 07:02:18;;;;;;;;;;;;;;;9.08;82.87;102463.31;5021171;28;19940;-63
2023/04/09 07:04:43;;;;;;;;;;;;;;;9.15;83.04;102469.81;5020859;28;19921;-63
2023/04/09 07:07:09;;;;;;;;;;;;;;;9.19;82.94;102474.75;5019490;28;20012;-63
2023/04/09 07:09:34;;;;;;;;;;;;;;;9.26;82.66;102475.13;5026400;28;20413;-63
2023/04/09 07:11:59;;;;;;;;;;;;;;;9.28;82.65;102466.09;5027538;28;19917;-64
2023/04/09 07:14:25;;;;;;;;;;;;;;;9.31;82.39;102472.94;5022479;28;20026;-64
2023/04/09 07:16:50;;;;;;;;;;;;;;;9.41;82.79;102471.25;5022391;28;20175;-64
2023/04/09 07:19:15;;;;;;;;;;;;;;;9.46;82.37;102471.72;5013954;28;20000;-63
2023/04/09 07:21:40;;;;;;;;;;;;;;;9.50;82.24;102473.16;5011530;28;19926;-64
2023/04/09 07:24:06;;;;;;;;;;;;;;;9.54;81.89;102474.59;5020970;28;20798;-64
2023/04/09 07:26:31;;;;;;;;;;;;;;;9.61;81.89;102478.44;5025350;28;19921;-64
2023/04/09 07:28:57;;;;;;;;;;;;;;;9.70;81.97;102471.53;5019131;28;20421;-64
2023/04/09 07:31:22;;;;;;;;;;;;;;;9.77;81.86;102479.84;5028532;28;19925;-64
2023/04/09 07:33:47;;;;;;;;;;;;;;;9.82;81.50;102477.66;5026754;28;19973;-64
2023/04/09 07:36:12;;;;;;;;;;;;;;;9.92;81.61;102468.81;5019029;28;20016;-64
2023/04/09 07:38:37;;;;;;;;;;;;;;;9.96;81.31;102473.88;5028360;28;19935;-64
2023/04/09 07:41:03;;;;;;;;;;;;;;;10.00;81.13;102476.16;5030338;28;19916;-64
2023/04/09 07:43:28;;;;;;;;;;;;;;;10.08;81.12;102473.69;5027189;28;19917;-64
2023/04/09 07:45:53;;;;;;;;;;;;;;;10.16;80.87;102468.59;5025774;28;19913;-64
2023/04/09 07:48:18;;;;;;;;;;;;;;;10.21;80.87;102469.09;5017610;28;19921;-64
2023/04/09 07:50:47;;;;;;;;;;;;;;;10.28;80.53;102469.41;5025453;28;19964;-63
2023/04/09 07:53:12;;;;;;;;;;;;;;;10.34;80.63;102473.38;5023301;28;19925;-64
2023/04/09 07:55:37;;;;;;;;;;;;;;;10.42;80.41;102469.13;5026645;28;19917;-64
2023/04/09 07:58:04;;;;;;;;;;;;;;;10.50;80.03;102457.84;5019333;28;19925;-64
2023/04/09 08:00:30;;;;;;;;;;;;;;;10.55;80.43;102463.59;5022371;28;19913;-64
2023/04/09 08:02:56;;;;;;;;;;;;;;;10.57;79.50;102469.63;5022850;28;19920;-64
2023/04/09 08:05:21;;;;;;;;;;;;;;;10.57;79.25;102468.78;5019505;28;19918;-64
2023/04/09 08:07:46;;;;;;;;;;;;;;;10.61;79.59;102471.03;5026440;28;19968;-64
2023/04/09 08:10:13;;;;;;;;;;;;;;;10.64;78.92;102469.91;5031611;28;19924;-64
2023/04/09 08:12:39;;;;;;;;;;;;;;;10.67;79.10;102475.81;5028118;28;19913;-64
2023/04/09 08:15:04;;;;;;;;;;;;;;;10.69;79.13;102473.88;5020538;28;20322;-64
2023/04/09 08:17:29;;;;;;;;;;;;;;;10.65;79.02;102477.75;5028372;28;20023;-63
2023/04/09 08:19:56;;;;;;;;;;;;;;;10.64;78.59;102470.75;5015221;28;21568;-64
2023/04/09 08:22:21;;;;;;;;;;;;;;;10.66;78.69;102465.31;5026394;28;20307;-64
2023/04/09 08:24:50;;;;;;;;;;;;;;;10.70;78.97;102475.56;5022127;28;19921;-64
2023/04/09 08:27:16;;;;;;;;;;;;;;;10.78;78.70;102472.25;5019991;28;19960;-64
2023/04/09 08:29:42;;;;;;;;;;;;;;;10.89;79.23;102473.97;5024214;28;19929;-64
2023/04/09 08:32:07;;;;;;;;;;;;;;;11.04;79.52;102473.50;5024427;28;19976;-63
2023/04/09 08:34:32;;;;;;;;;;;;;;;11.16;79.18;102468.91;5022996;28;19925;-64
2023/04/09 08:36:57;;;;;;;;;;;;;;;11.30;78.94;102465.91;5027158;28;19917;-64
2023/04/09 08:39:22;;;;;;;;;;;;;;;11.38;78.64;102475.84;5025024;28;20002;-64
2023/04/09 08:41:49;;;;;;;;;;;;;;;11.33;78.03;102470.09;5026827;28;19933;-64
2023/04/09 08:44:15;;;;;;;;;;;;;;;11.27;78.02;102463.50;5007754;28;20390;-64
2023/04/09 08:46:40;;;;;;;;;;;;;;;11.27;77.43;102470.63;5023996;28;20390;-63
2023/04/09 08:49:07;;;;;;;;;;;;;;;11.28;77.84;102467.03;5031127;28;19917;-63
2023/04/09 08:51:32;;;;;;;;;;;;;;;11.36;77.82;102467.19;5024399;28;20053;-64
2023/04/09 08:53:59;;;;;;;;;;;;;;;11.39;77.58;102459.75;5025587;28;20442;-64
2023/04/09 08:56:25;;;;;;;;;;;;;;;11.39;77.54;102458.91;5024707;28;19917;-64
2023/04/09 08:58:50;;;;;;;;;;;;;;;11.44;77.34;102454.88;5017282;28;20004;-64
2023/04/09 09:01:25;;;;;;;;;;;;;;;11.53;77.71;102461.19;5022721;28;19989;-64
2023/04/09 09:03:52;;;;;;;;;;;;;;;11.63;77.73;102456.72;5024570;28;19917;-64
2023/04/09 09:06:21;;;;;;;;;;;;;;;11.81;77.79;102459.56;5018123;28;19948;-64
2023/04/09 09:08:58;;;;;;;;;;;;;;;11.88;77.11;102458.06;5023089;28;20271;-64
2023/04/09 09:11:26;;;;;;;;;;;;;;;11.88;76.37;102454.56;5019741;28;19917;-64
2023/04/09 09:13:59;;;;;;;;;;;;;;;12.00;76.70;102461.41;5021839;28;19971;-64
2023/04/09 09:16:24;;;;;;;;;;;;;;;12.07;76.03;102459.88;5025205;28;19918;-64
2023/04/09 09:18:49;;;;;;;;;;;;;;;12.13;75.85;102459.28;5021466;28;20290;-64
2023/04/09 09:21:16;;;;;;;;;;;;;;;12.22;75.86;102460.28;5025366;28;19917;-64
2023/04/09 09:23:42;;;;;;;;;;;;;;;12.19;74.71;102461.41;5022397;28;20628;-64
2023/04/09 09:26:15;;;;;;;;;;;;;;;12.18;74.63;102454.41;5027083;28;19933;-64
2023/04/09 09:28:40;;;;;;;;;;;;;;;12.21;75.06;102453.28;5022103;28;19925;-64
2023/04/09 09:31:09;;;;;;;;;;;;;;;12.36;75.17;102460.69;5026578;28;20375;-64
2023/04/09 09:33:34;;;;;;;;;;;;;;;12.54;75.21;102454.63;5025173;28;20009;-64
2023/04/09 09:36:02;;;;;;;;;;;;;;;12.52;74.67;102453.94;5022924;28;20011;-64
2023/04/09 09:38:27;;;;;;;;;;;;;;;12.49;74.34;102455.06;5024342;28;19917;-64
2023/04/09 09:40:52;;;;;;;;;;;;;;;12.49;74.37;102447.06;5021862;28;19963;-64
2023/04/09 09:43:18;;;;;;;;;;;;;;;12.55;74.65;102445.66;5028180;28;20299;-64
2023/04/09 09:45:45;;;;;;;;;;;;;;;12.58;74.42;102450.69;5027320;28;19921;-64
2023/04/09 09:48:11;;;;;;;;;;;;;;;12.58;73.85;102438.19;5025211;28;19918;-64
2023/04/09 09:50:36;;;;;;;;;;;;;;;12.55;73.67;102433.16;5034761;28;19917;-64
2023/04/09 09:53:05;;;;;;;;;;;;;;;12.63;74.14;102438.59;5018271;28;19916;-64
2023/04/09 09:55:31;;;;;;;;;;;;;;;12.82;74.11;102437.72;5018439;28;19925;-64
2023/04/09 09:57:57;;;;;;;;;;;;;;;13.00;74.17;102425.25;5024045;28;19925;-64
2023/04/09 10:00:24;;;;;;;;;;;;;;;13.17;73.77;102422.81;5014902;28;19983;-64
2023/04/09 10:02:57;;;;;;;;;;;;;;;13.44;74.10;102422.81;5023471;28;19971;-64
2023/04/09 10:05:25;;;;;;;;;;;;;;;13.74;74.13;102424.28;5017008;28;19925;-64
2023/04/09 10:07:51;;;;;;;;;;;;;;;13.77;73.08;102423.13;5016095;28;19958;-64
2023/04/09 10:10:16;;;;;;;;;;;;;;;13.82;72.85;102427.03;5017762;28;19921;-64
2023/04/09 10:12:44;;;;;;;;;;;;;;;14.04;72.77;102412.38;5020331;28;19921;-64
2023/04/09 10:15:09;;;;;;;;;;;;;;;14.05;71.02;102422.06;5017998;28;19971;-65
2023/04/09 10:17:35;;;;;;;;;;;;;;;13.93;70.15;102423.31;5017348;28;20381;-64
2023/04/09 10:20:06;;;;;;;;;;;;;;;13.95;70.90;102419.47;5018222;28;19965;-64
2023/04/09 10:22:33;;;;;;;;;;;;;;;14.23;71.16;102408.69;5019078;28;19927;-64
2023/04/09 10:24:58;;;;;;;;;;;;;;;14.45;70.18;102400.16;5013482;28;19995;-64
2023/04/09 10:27:25;;;;;;;;;;;;;;;14.50;70.72;102402.38;5019387;28;20386;-64
2023/04/09 10:29:51;;;;;;;;;;;;;;;14.36;69.02;102389.53;5019762;28;20365;-64
2023/04/09 10:32:20;;;;;;;;;;;;;;;14.31;68.48;102403.38;5023229;28;20008;-65
2023/04/09 10:34:45;;;;;;;;;;;;;;;14.21;68.17;102383.94;5014696;28;19921;-64
2023/04/09 10:37:15;;;;;;;;;;;;;;;14.13;67.05;102392.72;5023475;28;19971;-64
2023/04/09 10:39:45;;;;;;;;;;;;;;;14.14;67.68;102383.72;5025221;28;19913;-64
2023/04/09 10:42:12;;;;;;;;;;;;;;;14.34;66.73;102381.69;5029167;28;19921;-64
2023/04/09 10:44:40;;;;;;;;;;;;;;;14.44;66.46;102385.09;5023757;28;20034;-64
2023/04/09 10:47:05;;;;;;;;;;;;;;;14.57;66.06;102379.34;5025840;28;19972;-64
2023/04/09 10:49:34;;;;;;;;;;;;;;;14.73;66.20;102373.22;5026232;28;19964;-64
2023/04/09 10:52:01;;;;;;;;;;;;;;;14.98;65.72;102364.31;5018737;28;19925;-64
2023/04/09 10:54:32;;;;;;;;;;;;;;;15.01;63.60;102376.50;5024757;28;20637;-65
2023/04/09 10:57:10;;;;;;;;;;;;;;;14.90;65.21;102374.97;5026442;28;19917;-64
2023/04/09 10:59:36;;;;;;;;;;;;;;;14.84;66.24;102370.28;5025351;28;19952;-64
2023/04/09 11:02:05;;;;;;;;;;;;;;;14.67;64.22;102379.22;5033759;28;20353;-64
2023/04/09 11:04:36;;;;;;;;;;;;;;;14.54;64.58;102369.81;5028664;28;19953;-64
2023/04/09 11:07:04;;;;;;;;;;;;;;;14.55;65.10;102368.81;5024344;28;19924;-64
2023/04/09 11:09:29;;;;;;;;;;;;;;;14.56;64.75;102362.47;5014509;28;19975;-64
2023/04/09 11:11:56;;;;;;;;;;;;;;;14.65;64.75;102359.84;5019148;28;19917;-64
2023/04/09 11:14:22;;;;;;;;;;;;;;;14.75;63.89;102361.41;5020316;28;19921;-65
2023/04/09 11:16:47;;;;;;;;;;;;;;;14.79;64.36;102352.06;5016610;28;19917;-65
2023/04/09 11:19:13;;;;;;;;;;;;;;;14.82;64.18;102359.75;5018402;28;20333;-65
2023/04/09 11:21:44;;;;;;;;;;;;;;;14.82;64.92;102361.59;5017748;28;20048;-65
2023/04/09 11:24:10;;;;;;;;;;;;;;;14.86;64.79;102357.59;5024004;28;19921;-65
2023/04/09 11:26:36;;;;;;;;;;;;;;;14.98;63.15;102352.78;5019210;28;19921;-65
2023/04/09 11:29:06;;;;;;;;;;;;;;;15.10;62.79;102343.47;5021283;28;19925;-64
2023/04/09 11:31:31;;;;;;;;;;;;;;;15.32;62.37;102347.31;5020372;28;20004;-65
2023/04/09 11:33:56;;;;;;;;;;;;;;;15.60;62.05;102355.94;5021941;28;20465;-65
2023/04/09 11:36:22;;;;;;;;;;;;;;;15.83;62.17;102351.59;5019631;28;19921;-65
2023/04/09 11:38:48;;;;;;;;;;;;;;;16.14;61.23;102338.31;5019520;28;19952;-64
2023/04/09 11:41:13;;;;;;;;;;;;;;;16.41;60.63;102351.31;5023408;28;19936;-64
2023/04/09 11:43:38;;;;;;;;;;;;;;;16.48;59.26;102345.25;5016049;28;19982;-64
2023/04/09 11:46:04;;;;;;;;;;;;;;;16.42;60.15;102342.28;5021734;28;19921;-65
2023/04/09 11:48:29;;;;;;;;;;;;;;;16.44;59.10;102344.78;5016883;28;19925;-65
2023/04/09 11:50:55;;;;;;;;;;;;;;;16.50;58.55;102329.88;5023303;28;19917;-65
2023/04/09 11:53:20;;;;;;;;;;;;;;;16.51;57.28;102328.84;5018207;28;19917;-65
2023/04/09 11:55:48;;;;;;;;;;;;;;;16.40;56.84;102340.78;5020590;28;19917;-65
2023/04/09 11:58:13;;;;;;;;;;;;;;;16.27;55.14;102333.28;5013593;28;19977;-65
2023/04/09 12:00:41;;;;;;;;;;;;;;;16.33;55.76;102337.94;5020329;28;19925;-65
2023/04/09 12:03:06;;;;;;;;;;;;;;;16.36;55.13;102342.97;5022080;28;19952;-64
2023/04/09 12:05:33;;;;;;;;;;;;;;;16.29;54.31;102336.63;5018075;28;19963;-64
2023/04/09 12:08:07;;;;;;;;;;;;;;;16.04;53.10;102332.31;5018439;28;20379;-65
2023/04/09 12:10:36;;;;;;;;;;;;;;;15.91;54.47;102332.00;5022758;28;19928;-65
2023/04/09 12:13:02;;;;;;;;;;;;;;;15.97;54.91;102329.47;5024397;28;20004;-64
2023/04/09 12:15:30;;;;;;;;;;;;;;;16.05;55.94;102334.81;5019921;28;19917;-65
2023/04/09 12:17:56;;;;;;;;;;;;;;;15.99;55.69;102338.19;5029020;28;20352;-64
2023/04/09 12:20:32;;;;;;;;;;;;;;;15.96;55.85;102332.34;5021092;28;19913;-64
2023/04/09 12:22:59;;;;;;;;;;;;;;;15.96;55.09;102333.16;5023633;28;19925;-64
2023/04/09 12:25:24;;;;;;;;;;;;;;;16.00;53.96;102331.81;5018278;28;19917;-64
2023/04/09 12:27:49;;;;;;;;;;;;;;;16.12;53.45;102329.59;5019300;28;19921;-64
2023/04/09 12:30:14;;;;;;;;;;;;;;;16.33;53.80;102332.59;5023835;28;19917;-64
2023/04/09 12:32:41;;;;;;;;;;;;;;;16.62;54.09;102320.41;5027222;28;19917;-64
2023/04/09 12:35:07;;;;;;;;;;;;;;;16.83;54.64;102322.53;5014779;28;20083;-64